Time;durP1;ratioP1;P1;durP2;ratioP2;P2;SDS_P1;SDS_P2;PMS_P1;PMS_P2;Temp;Humidity;BMP_temperature;BMP_pressure;BME280_temperature;BME280_humidity;BME280_pressure;Samples;Min_cycle;Max_cycle;Signal;HPM_P1;HPM_P2
2021/11/07 00:06:52;;;;;;;11.32;5.60;;;;;;;;;;4994854;28;20053;-56
2021/11/07 00:11:45;;;;;;;18.00;7.70;;;;;;;;;;4994637;28;20510;-56
2021/11/07 00:14:12;;;;;;;12.05;5.80;;;;;;;;;;4994203;28;20050;-56
2021/11/07 00:16:40;;;;;;;14.32;6.75;;;;;;;;;;4993156;28;20035;-55
2021/11/07 00:19:44;;;;;;;17.30;8.05;;;;;;;;;;4993902;28;20135;-56
2021/11/07 00:27:07;;;;;;;13.38;7.72;;;;;;;;;;4992984;28;20047;-55
2021/11/07 00:29:45;;;;;;;12.75;6.05;;;;;;;;;;4993732;28;20092;-56
2021/11/07 00:37:44;;;;;;;13.30;7.25;;;;;;;;;;4993984;28;20226;-56
2021/11/07 00:42:54;;;;;;;14.32;7.63;;;;;;;;;;4978506;28;20053;-55
2021/11/07 00:50:42;;;;;;;15.13;6.93;;;;;;;;;;4993597;28;20082;-56
2021/11/07 00:55:48;;;;;;;12.80;6.20;;;;;;;;;;4973284;28;20086;-55
2021/11/07 00:58:18;;;;;;;18.40;8.63;;;;;;;;;;4993425;28;20410;-56
2021/11/07 01:03:17;;;;;;;16.50;6.35;;;;;;;;;;4990583;28;20093;-55
2021/11/07 01:05:44;;;;;;;15.85;8.00;;;;;;;;;;4993393;28;20066;-55
2021/11/07 01:08:10;;;;;;;20.85;8.52;;;;;;;;;;4992072;28;20108;-55
2021/11/07 01:10:37;;;;;;;18.90;6.65;;;;;;;;;;4993257;28;20455;-55
2021/11/07 01:13:04;;;;;;;23.95;9.15;;;;;;;;;;4993163;28;20047;-56
2021/11/07 01:15:31;;;;;;;22.50;9.63;;;;;;;;;;4993276;28;20402;-56
2021/11/07 01:18:00;;;;;;;17.63;8.05;;;;;;;;;;4993879;28;20054;-56
2021/11/07 01:20:29;;;;;;;20.67;7.57;;;;;;;;;;4992908;28;20046;-55
2021/11/07 01:25:27;;;;;;;12.48;7.20;;;;;;;;;;4993019;28;20038;-56
2021/11/07 01:27:56;;;;;;;12.32;6.43;;;;;;;;;;4992551;28;20392;-55
2021/11/07 01:30:25;;;;;;;19.23;8.57;;;;;;;;;;4992861;28;20070;-55
2021/11/07 01:33:01;;;;;;;17.63;6.72;;;;;;;;;;4993525;28;20046;-55
2021/11/07 01:38:24;;;;;;;18.27;8.30;;;;;;;;;;4992216;28;20068;-55
2021/11/07 01:40:58;;;;;;;18.95;8.35;;;;;;;;;;4992374;28;20046;-55
2021/11/07 01:43:24;;;;;;;17.70;9.75;;;;;;;;;;4992658;28;20046;-56
2021/11/07 01:46:00;;;;;;;25.00;9.80;;;;;;;;;;4992663;28;20062;-53
2021/11/07 01:48:29;;;;;;;18.23;9.02;;;;;;;;;;4993113;28;20418;-55
2021/11/07 01:50:57;;;;;;;21.65;8.52;;;;;;;;;;4991727;28;20560;-56
2021/11/07 01:53:34;;;;;;;23.50;10.30;;;;;;;;;;4992862;28;20148;-55
2021/11/07 01:56:05;;;;;;;11.32;5.40;;;;;;;;;;4992966;28;20050;-55
2021/11/07 01:58:33;;;;;;;17.30;8.50;;;;;;;;;;4975238;28;20042;-54
2021/11/07 02:00:59;;;;;;;19.10;7.72;;;;;;;;;;4992722;28;20050;-55
2021/11/07 02:03:26;;;;;;;12.88;6.63;;;;;;;;;;4992978;28;20085;-55
2021/11/07 02:05:53;;;;;;;20.33;7.88;;;;;;;;;;4993484;28;20394;-55
2021/11/07 02:08:20;;;;;;;17.30;7.80;;;;;;;;;;4992203;28;20054;-55
2021/11/07 02:10:47;;;;;;;19.77;7.38;;;;;;;;;;4972650;28;20038;-55
2021/11/07 02:13:14;;;;;;;15.68;6.90;;;;;;;;;;4992561;28;20099;-55
2021/11/07 02:15:40;;;;;;;15.00;6.88;;;;;;;;;;4992598;28;20560;-55
2021/11/07 02:18:06;;;;;;;17.85;8.52;;;;;;;;;;4993234;28;20414;-55
2021/11/07 02:20:34;;;;;;;13.10;6.80;;;;;;;;;;4992427;28;20046;-55
2021/11/07 02:23:09;;;;;;;18.73;7.93;;;;;;;;;;4992152;28;20486;-55
2021/11/07 02:25:35;;;;;;;;;;;;;;;;;;4992740;28;20046;-55
2021/11/07 02:28:03;;;;;;;13.23;6.22;;;;;;;;;;4992475;28;19929;-55
2021/11/07 02:30:29;;;;;;;18.63;7.95;;;;;;;;;;4992438;28;20101;-55
2021/11/07 02:32:58;;;;;;;11.23;6.43;;;;;;;;;;4993155;28;20050;-55
2021/11/07 02:35:26;;;;;;;19.98;6.45;;;;;;;;;;4992518;28;20236;-55
2021/11/07 02:37:53;;;;;;;14.25;7.80;;;;;;;;;;4991993;28;20038;-55
2021/11/07 02:40:20;;;;;;;13.40;6.88;;;;;;;;;;4994894;28;20449;-55
2021/11/07 02:42:46;;;;;;;15.68;7.78;;;;;;;;;;4998974;28;20116;-55
2021/11/07 02:45:13;;;;;;;13.95;6.72;;;;;;;;;;4999749;28;20121;-55
2021/11/07 02:47:40;;;;;;;13.55;6.15;;;;;;;;;;4999165;28;20073;-55
2021/11/07 02:50:08;;;;;;;8.93;5.53;;;;;;;;;;4998528;28;20050;-55
2021/11/07 02:52:34;;;;;;;16.85;7.32;;;;;;;;;;4998735;28;20038;-55
2021/11/07 02:55:01;;;;;;;14.20;6.60;;;;;;;;;;4998738;28;20062;-55
2021/11/07 02:57:27;;;;;;;13.65;7.45;;;;;;;;;;4998665;28;20112;-55
2021/11/07 03:00:04;;;;;;;18.75;9.25;;;;;;;;;;4997309;28;20066;-56
2021/11/07 03:02:31;;;;;;;13.95;6.45;;;;;;;;;;4998430;28;20077;-55
2021/11/07 03:04:57;;;;;;;11.95;5.78;;;;;;;;;;4998285;28;20490;-55
2021/11/07 03:07:23;;;;;;;9.02;4.75;;;;;;;;;;4998600;28;20046;-55
2021/11/07 03:09:50;;;;;;;15.07;6.88;;;;;;;;;;4998463;28;20066;-55
2021/11/07 03:12:17;;;;;;;16.77;6.00;;;;;;;;;;4998890;28;20478;-55
2021/11/07 03:14:48;;;;;;;21.88;7.85;;;;;;;;;;4998577;28;20046;-55
2021/11/07 03:17:19;;;;;;;12.98;7.45;;;;;;;;;;4998218;28;20093;-55
2021/11/07 03:19:45;;;;;;;15.00;7.15;;;;;;;;;;4997585;28;20521;-55
2021/11/07 03:22:13;;;;;;;16.55;8.35;;;;;;;;;;4997936;28;20084;-55
2021/11/07 03:24:40;;;;;;;12.07;5.95;;;;;;;;;;4997891;28;20534;-55
2021/11/07 03:27:19;;;;;;;16.60;8.00;;;;;;;;;;4998621;28;20054;-55
2021/11/07 03:29:48;;;;;;;14.55;7.40;;;;;;;;;;4997316;28;20065;-55
2021/11/07 03:32:20;;;;;;;8.73;4.35;;;;;;;;;;4998267;28;20080;-55
2021/11/07 03:34:50;;;;;;;16.52;8.32;;;;;;;;;;4997481;28;20414;-55
2021/11/07 03:37:25;;;;;;;17.55;7.68;;;;;;;;;;4998300;28;20046;-55
2021/11/07 03:39:57;;;;;;;16.73;6.40;;;;;;;;;;4998361;28;20070;-55
2021/11/07 03:42:23;;;;;;;15.60;5.43;;;;;;;;;;4998388;28;20542;-55
2021/11/07 03:44:50;;;;;;;13.93;7.03;;;;;;;;;;4998949;28;20073;-55
2021/11/07 03:47:17;;;;;;;8.98;4.57;;;;;;;;;;4998145;28;20473;-55
2021/11/07 03:49:43;;;;;;;11.50;6.95;;;;;;;;;;4997906;28;20037;-55
2021/11/07 03:52:10;;;;;;;13.57;7.40;;;;;;;;;;4996551;28;20043;-55
2021/11/07 03:54:39;;;;;;;16.90;6.28;;;;;;;;;;4995092;28;20085;-55
2021/11/07 03:57:05;;;;;;;17.63;5.97;;;;;;;;;;4995724;28;20454;-55
2021/11/07 03:59:31;;;;;;;12.82;6.60;;;;;;;;;;4994632;28;20117;-55
2021/11/07 04:01:58;;;;;;;11.57;5.65;;;;;;;;;;4994689;28;20506;-55
2021/11/07 04:04:24;;;;;;;16.48;8.15;;;;;;;;;;4994527;28;20047;-55
2021/11/07 04:06:51;;;;;;;9.95;4.85;;;;;;;;;;4994844;28;20109;-55
2021/11/07 04:09:19;;;;;;;14.52;7.53;;;;;;;;;;4995240;28;20498;-55
2021/11/07 04:11:45;;;;;;;19.73;8.48;;;;;;;;;;4995193;28;20422;-55
2021/11/07 04:14:13;;;;;;;19.10;8.00;;;;;;;;;;4994697;28;20046;-55
2021/11/07 04:16:40;;;;;;;17.95;8.18;;;;;;;;;;4994627;28;20071;-55
2021/11/07 04:19:07;;;;;;;16.70;7.50;;;;;;;;;;4994507;28;20050;-55
2021/11/07 04:21:33;;;;;;;18.33;6.85;;;;;;;;;;4994638;28;20414;-54
2021/11/07 04:24:00;;;;;;;18.10;7.90;;;;;;;;;;4995507;28;20066;-54
2021/11/07 04:26:26;;;;;;;23.40;9.85;;;;;;;;;;4994479;28;20054;-55
2021/11/07 04:28:52;;;;;;;18.83;9.43;;;;;;;;;;4994334;28;20050;-55
2021/11/07 04:31:19;;;;;;;16.10;8.13;;;;;;;;;;4994394;28;20038;-55
2021/11/07 04:33:45;;;;;;;9.68;4.75;;;;;;;;;;4994211;28;20521;-55
2021/11/07 04:36:11;;;;;;;25.65;11.45;;;;;;;;;;4995258;28;20046;-55
2021/11/07 04:38:38;;;;;;;24.25;8.90;;;;;;;;;;4994218;28;20077;-55
2021/11/07 04:41:06;;;;;;;11.98;7.63;;;;;;;;;;4993662;28;20042;-55
2021/11/07 04:43:32;;;;;;;23.15;10.48;;;;;;;;;;4993810;28;20122;-55
2021/11/07 04:45:59;;;;;;;19.73;9.07;;;;;;;;;;4994241;28;20050;-55
2021/11/07 04:48:25;;;;;;;16.25;7.25;;;;;;;;;;4994195;28;20057;-55
2021/11/07 04:50:52;;;;;;;28.08;10.20;;;;;;;;;;4977469;28;20054;-55
2021/11/07 04:53:21;;;;;;;22.10;9.57;;;;;;;;;;4994022;28;20133;-55
2021/11/07 04:55:48;;;;;;;13.98;6.70;;;;;;;;;;4993895;28;20058;-55
2021/11/07 04:58:14;;;;;;;13.73;7.35;;;;;;;;;;4993837;28;20034;-54
2021/11/07 05:00:41;;;;;;;10.27;5.88;;;;;;;;;;4993565;28;20082;-55
2021/11/07 05:03:08;;;;;;;18.75;9.43;;;;;;;;;;4994248;28;20062;-55
2021/11/07 05:05:35;;;;;;;17.58;8.88;;;;;;;;;;4993706;28;20474;-55
2021/11/07 05:08:02;;;;;;;17.20;8.27;;;;;;;;;;4993832;28;20070;-54
2021/11/07 05:10:28;;;;;;;15.63;7.97;;;;;;;;;;4993858;28;20050;-55
2021/11/07 05:12:54;;;;;;;15.90;8.30;;;;;;;;;;4993708;28;20042;-55
2021/11/07 05:15:21;;;;;;;21.20;10.48;;;;;;;;;;4993660;28;20061;-55
2021/11/07 05:17:48;;;;;;;21.73;7.53;;;;;;;;;;4994075;28;20054;-54
2021/11/07 05:20:14;;;;;;;17.63;8.35;;;;;;;;;;4993460;28;20086;-55
2021/11/07 05:22:41;;;;;;;19.27;10.07;;;;;;;;;;4993516;28;20070;-55
2021/11/07 05:25:08;;;;;;;23.67;11.70;;;;;;;;;;4993051;28;20121;-55
2021/11/07 05:27:34;;;;;;;19.45;9.57;;;;;;;;;;4993324;28;20141;-55
2021/11/07 05:30:06;;;;;;;19.80;9.90;;;;;;;;;;4994097;28;20069;-55
2021/11/07 05:32:32;;;;;;;21.55;11.15;;;;;;;;;;4992834;28;20051;-56
2021/11/07 05:34:58;;;;;;;19.05;8.65;;;;;;;;;;4993097;28;20410;-55
2021/11/07 05:37:24;;;;;;;30.50;10.30;;;;;;;;;;4993234;28;20077;-55
2021/11/07 05:39:51;;;;;;;22.20;10.80;;;;;;;;;;4993195;28;20049;-55
2021/11/07 05:42:18;;;;;;;16.63;8.43;;;;;;;;;;4993397;28;20097;-55
2021/11/07 05:44:44;;;;;;;13.40;7.85;;;;;;;;;;4993405;28;20486;-55
2021/11/07 05:47:10;;;;;;;17.52;9.10;;;;;;;;;;4993017;28;20097;-55
2021/11/07 05:49:37;;;;;;;16.40;9.27;;;;;;;;;;4992889;28;20043;-54
2021/11/07 05:52:04;;;;;;;24.23;10.85;;;;;;;;;;4993123;28;20050;-55
2021/11/07 05:54:30;;;;;;;28.85;11.95;;;;;;;;;;4992969;28;20046;-55
2021/11/07 05:56:57;;;;;;;19.50;9.18;;;;;;;;;;4993590;28;20048;-55
2021/11/07 05:59:24;;;;;;;19.27;8.43;;;;;;;;;;4992210;28;20082;-55
2021/11/07 06:01:50;;;;;;;18.83;9.57;;;;;;;;;;4990511;28;20506;-56
2021/11/07 06:04:17;;;;;;;13.48;8.20;;;;;;;;;;4992761;28;20038;-55
2021/11/07 06:06:43;;;;;;;11.82;6.50;;;;;;;;;;4977306;28;20513;-55
2021/11/07 06:09:10;;;;;;;20.77;9.75;;;;;;;;;;4993148;28;20141;-55
2021/11/07 06:11:36;;;;;;;17.67;8.40;;;;;;;;;;4992512;28;20061;-55
2021/11/07 06:14:03;;;;;;;16.08;9.45;;;;;;;;;;5001657;28;20081;-55
2021/11/07 06:16:30;;;;;;;20.77;10.23;;;;;;;;;;4997155;28;20700;-55
2021/11/07 06:18:56;;;;;;;28.05;11.65;;;;;;;;;;4989419;28;20498;-55
2021/11/07 06:21:24;;;;;;;22.05;10.10;;;;;;;;;;4991525;28;20105;-54
2021/11/07 06:23:50;;;;;;;20.98;9.13;;;;;;;;;;4992245;28;20042;-55
2021/11/07 06:26:17;;;;;;;20.45;9.80;;;;;;;;;;4991844;28;20073;-55
2021/11/07 06:28:43;;;;;;;20.52;10.50;;;;;;;;;;4990211;28;20085;-55
2021/11/07 06:31:12;;;;;;;23.58;10.52;;;;;;;;;;4991444;28;20057;-55
2021/11/07 06:33:39;;;;;;;24.55;9.45;;;;;;;;;;4991200;28;20487;-55
2021/11/07 06:36:06;;;;;;;19.95;9.13;;;;;;;;;;4992165;28;20081;-55
2021/11/07 06:38:32;;;;;;;12.82;7.93;;;;;;;;;;4990908;28;20050;-54
2021/11/07 06:40:59;;;;;;;15.80;8.95;;;;;;;;;;4988451;28;20449;-54
2021/11/07 06:43:26;;;;;;;18.30;8.80;;;;;;;;;;4991128;28;20514;-55
2021/11/07 06:45:53;;;;;;;16.90;8.90;;;;;;;;;;4991438;28;20053;-54
2021/11/07 06:48:19;;;;;;;18.95;7.38;;;;;;;;;;4991112;28;21341;-54
2021/11/07 06:50:46;;;;;;;18.30;9.43;;;;;;;;;;4991777;28;20077;-55
2021/11/07 06:53:12;;;;;;;16.77;8.88;;;;;;;;;;4990840;28;20130;-55
2021/11/07 06:55:38;;;;;;;17.05;7.25;;;;;;;;;;4991092;28;20050;-56
2021/11/07 06:58:05;;;;;;;15.05;8.40;;;;;;;;;;4990976;28;20092;-56
2021/11/07 07:00:31;;;;;;;15.38;7.25;;;;;;;;;;4990676;28;20143;-56
2021/11/07 07:02:58;;;;;;;15.30;7.90;;;;;;;;;;4992064;28;20050;-56
2021/11/07 07:05:24;;;;;;;12.18;6.15;;;;;;;;;;4990828;28;20042;-56
2021/11/07 07:07:55;;;;;;;18.92;8.68;;;;;;;;;;4990947;28;20042;-55
2021/11/07 07:10:35;;;;;;;16.77;8.80;;;;;;;;;;4990518;28;20062;-55
2021/11/07 07:13:06;;;;;;;15.95;8.38;;;;;;;;;;4989943;28;20070;-55
2021/11/07 07:15:42;;;;;;;16.60;8.63;;;;;;;;;;4990206;28;20046;-55
2021/11/07 07:18:39;;;;;;;12.20;7.03;;;;;;;;;;4996201;28;20097;-55
2021/11/07 07:21:20;;;;;;;11.32;5.75;;;;;;;;;;5001237;28;20045;-55
2021/11/07 07:34:25;;;;;;;10.63;6.28;;;;;;;;;;4999506;28;20081;-55
2021/11/07 07:36:53;;;;;;;13.68;6.45;;;;;;;;;;5002632;28;20104;-56
2021/11/07 07:39:19;;;;;;;15.75;8.85;;;;;;;;;;5003244;28;20068;-55
2021/11/07 07:41:46;;;;;;;15.48;7.82;;;;;;;;;;5002424;28;20490;-55
2021/11/07 07:44:15;;;;;;;10.45;7.28;;;;;;;;;;4985564;28;20050;-56
2021/11/07 07:46:43;;;;;;;17.85;7.25;;;;;;;;;;4997911;28;20070;-58
2021/11/07 07:49:12;;;;;;;12.63;5.75;;;;;;;;;;4994589;28;20125;-55
2021/11/07 07:51:38;;;;;;;17.52;6.85;;;;;;;;;;4994749;28;20046;-54
2021/11/07 07:54:06;;;;;;;14.05;6.72;;;;;;;;;;4995524;28;20078;-55
2021/11/07 07:56:33;;;;;;;20.60;6.57;;;;;;;;;;4994635;28;20617;-55
2021/11/07 07:59:00;;;;;;;11.10;5.43;;;;;;;;;;4994265;28;20108;-55
2021/11/07 08:01:28;;;;;;;13.23;6.55;;;;;;;;;;4994597;28;20077;-55
2021/11/07 08:03:54;;;;;;;10.02;4.82;;;;;;;;;;4994540;28;20490;-55
2021/11/07 08:06:21;;;;;;;23.00;6.30;;;;;;;;;;4994736;28;20058;-55
2021/11/07 08:08:47;;;;;;;16.00;7.30;;;;;;;;;;4993890;28;20084;-56
2021/11/07 08:11:14;;;;;;;12.95;6.50;;;;;;;;;;4994164;28;20152;-55
2021/11/07 08:13:41;;;;;;;12.15;4.90;;;;;;;;;;4994220;28;20046;-55
2021/11/07 08:16:08;;;;;;;13.27;6.43;;;;;;;;;;4994430;28;20077;-55
2021/11/07 08:18:35;;;;;;;12.93;5.88;;;;;;;;;;4993904;28;20050;-55
2021/11/07 08:21:01;;;;;;;13.98;6.15;;;;;;;;;;4995202;28;20139;-55
2021/11/07 08:23:28;;;;;;;9.63;4.95;;;;;;;;;;4993857;28;20549;-56
2021/11/07 08:25:54;;;;;;;12.88;6.68;;;;;;;;;;4994015;28;20070;-56
2021/11/07 08:28:21;;;;;;;15.20;6.75;;;;;;;;;;4993909;28;20097;-55
2021/11/07 08:30:52;;;;;;;8.43;4.55;;;;;;;;;;4994082;28;20050;-55
2021/11/07 08:33:19;;;;;;;14.23;7.13;;;;;;;;;;4991650;28;20054;-53
2021/11/07 08:35:46;;;;;;;12.93;4.97;;;;;;;;;;4993389;28;20054;-55
2021/11/07 08:38:23;;;;;;;13.43;5.95;;;;;;;;;;4992318;28;20189;-53
2021/11/07 08:40:53;;;;;;;14.10;5.97;;;;;;;;;;4993809;28;20121;-54
2021/11/07 09:02:54;;;;;;;14.63;6.00;;;;;;;;;;4993243;28;20113;-54
2021/11/07 09:05:28;;;;;;;7.75;4.15;;;;;;;;;;4993381;28;20518;-54
2021/11/07 09:10:36;;;;;;;12.02;5.47;;;;;;;;;;4993194;28;20077;-54
2021/11/07 09:13:04;;;;;;;10.82;5.68;;;;;;;;;;4992950;28;20109;-54
2021/11/07 09:15:31;;;;;;;6.88;3.45;;;;;;;;;;4991766;28;20129;-55
2021/11/07 09:17:59;;;;;;;10.68;5.25;;;;;;;;;;4991642;28;20506;-55
2021/11/07 09:20:32;;;;;;;6.63;4.03;;;;;;;;;;4991395;28;20494;-55
2021/11/07 09:23:04;;;;;;;14.35;5.70;;;;;;;;;;4992196;28;20513;-55
2021/11/07 09:26:17;;;;;;;8.68;4.07;;;;;;;;;;4992760;28;20123;-55
2021/11/07 09:28:31;;;;;;;8.85;4.70;;;;;;;;;;4989473;28;20078;-55
2021/11/07 09:31:08;;;;;;;7.95;3.53;;;;;;;;;;4992734;28;20108;-55
2021/11/07 09:33:50;;;;;;;9.38;4.60;;;;;;;;;;4992390;28;20544;-55
2021/11/07 09:41:48;;;;;;;7.03;4.05;;;;;;;;;;4998154;28;20046;-55
2021/11/07 09:44:17;;;;;;;9.65;4.55;;;;;;;;;;4997831;28;20042;-55
2021/11/07 09:47:06;;;;;;;4.53;2.83;;;;;;;;;;5001288;28;20161;-55
2021/11/07 09:49:33;;;;;;;11.13;4.20;;;;;;;;;;5000104;28;20409;-55
2021/11/07 09:52:10;;;;;;;7.75;4.30;;;;;;;;;;5000967;28;20042;-54
2021/11/07 09:54:37;;;;;;;8.27;4.18;;;;;;;;;;5001038;28;20050;-54
2021/11/07 09:57:05;;;;;;;7.78;4.85;;;;;;;;;;5003460;28;20049;-59
2021/11/07 09:59:32;;;;;;;10.48;5.07;;;;;;;;;;5000136;28;20437;-55
2021/11/07 10:02:00;;;;;;;9.73;4.20;;;;;;;;;;5000246;28;20514;-54
2021/11/07 10:04:38;;;;;;;10.10;4.85;;;;;;;;;;5000789;28;20046;-55
2021/11/07 10:07:19;;;;;;;12.32;5.63;;;;;;;;;;4998195;28;20498;-55
2021/11/07 10:09:52;;;;;;;9.52;4.80;;;;;;;;;;5000062;28;20133;-54
2021/11/07 10:12:22;;;;;;;9.73;4.25;;;;;;;;;;4995674;28;20074;-56
2021/11/07 10:14:51;;;;;;;13.68;5.43;;;;;;;;;;5000438;28;20076;-55
2021/11/07 10:17:26;;;;;;;9.73;4.00;;;;;;;;;;4991468;28;20491;-57
2021/11/07 10:20:07;;;;;;;8.05;4.53;;;;;;;;;;4989118;28;20054;-56
2021/11/07 10:22:34;;;;;;;11.75;4.43;;;;;;;;;;4990916;28;20182;-55
2021/11/07 10:25:01;;;;;;;5.15;3.30;;;;;;;;;;4991140;28;20070;-55
2021/11/07 10:27:29;;;;;;;10.07;5.05;;;;;;;;;;4990304;28;20053;-54
2021/11/07 10:30:06;;;;;;;8.07;4.65;;;;;;;;;;4991615;28;20046;-54
2021/11/07 10:32:41;;;;;;;11.00;4.63;;;;;;;;;;4989724;28;20447;-54
2021/11/07 10:35:25;;;;;;;4.97;3.15;;;;;;;;;;4990053;28;20104;-55
2021/11/07 10:53:53;;;;;;;11.80;4.72;;;;;;;;;;4991090;28;20073;-53
2021/11/07 10:56:19;;;;;;;8.63;4.63;;;;;;;;;;4990475;28;20081;-54
2021/11/07 10:58:46;;;;;;;9.02;4.68;;;;;;;;;;4990427;28;20042;-54
2021/11/07 11:01:19;;;;;;;6.95;3.97;;;;;;;;;;4990681;28;20077;-55
2021/11/07 11:03:47;;;;;;;8.93;4.00;;;;;;;;;;4992387;28;20520;-54
2021/11/07 11:06:14;;;;;;;11.23;3.47;;;;;;;;;;4993030;28;20592;-55
2021/11/07 11:08:45;;;;;;;6.13;3.90;;;;;;;;;;4991986;28;20038;-55
2021/11/07 11:11:31;;;;;;;8.63;4.72;;;;;;;;;;4992866;28;20050;-54
2021/11/07 11:14:10;;;;;;;10.10;4.95;;;;;;;;;;4993262;28;20439;-55
2021/11/07 11:35:55;;;;;;;11.32;4.68;;;;;;;;;;4993662;28;20112;-55
2021/11/07 11:38:05;;;;;;;9.25;3.60;;;;;;;;;;4988349;28;20057;-55
2021/11/07 11:43:40;;;;;;;6.90;3.83;;;;;;;;;;4953711;29;20074;-56
2021/11/07 11:46:14;;;;;;;12.32;5.22;;;;;;;;;;4954458;29;20074;-55
2021/11/07 11:49:30;;;;;;;9.05;4.50;;;;;;;;;;4937853;29;20539;-56
2021/11/07 12:02:40;;;;;;;7.95;4.55;;;;;;;;;;4953446;29;20055;-54
2021/11/07 12:08:03;;;;;;;5.97;3.75;;;;;;;;;;4953448;29;20051;-54
2021/11/07 12:10:34;;;;;;;6.22;3.15;;;;;;;;;;4953297;29;20106;-55
2021/11/07 12:13:07;;;;;;;9.75;4.45;;;;;;;;;;4952381;28;20075;-55
2021/11/07 12:15:49;;;;;;;6.03;3.40;;;;;;;;;;4993739;28;20054;-56
2021/11/07 12:18:16;;;;;;;13.80;4.68;;;;;;;;;;4995032;28;20047;-55
2021/11/07 12:20:44;;;;;;;7.88;4.93;;;;;;;;;;4994379;28;20054;-56
2021/11/07 12:23:32;;;;;;;8.50;4.03;;;;;;;;;;4994258;28;20169;-55
2021/11/07 12:26:00;;;;;;;6.75;3.38;;;;;;;;;;4994239;28;20121;-54
2021/11/07 12:28:43;;;;;;;11.30;4.25;;;;;;;;;;4993998;28;20034;-55
2021/11/07 12:31:10;;;;;;;7.55;3.75;;;;;;;;;;4994050;28;20477;-54
2021/11/07 12:33:56;;;;;;;7.03;3.38;;;;;;;;;;4994328;28;20046;-54
2021/11/07 12:42:15;;;;;;;4.80;3.03;;;;;;;;;;4987114;28;20073;-54
2021/11/07 12:44:47;;;;;;;7.30;4.47;;;;;;;;;;4992457;28;20051;-54
2021/11/07 12:47:14;;;;;;;7.18;4.07;;;;;;;;;;4992691;28;20038;-55
2021/11/07 12:49:54;;;;;;;6.65;3.45;;;;;;;;;;4992254;28;20101;-55
2021/11/07 12:52:20;;;;;;;7.78;3.78;;;;;;;;;;4992339;28;20564;-54
2021/11/07 12:54:50;;;;;;;7.05;3.72;;;;;;;;;;4992755;28;20066;-56
2021/11/07 12:57:17;;;;;;;7.18;3.72;;;;;;;;;;4993966;28;20046;-54
2021/11/07 12:59:48;;;;;;;8.40;4.60;;;;;;;;;;4992080;28;20125;-55
2021/11/07 13:02:22;;;;;;;9.13;4.82;;;;;;;;;;4993021;28;20046;-55
2021/11/07 13:04:51;;;;;;;9.27;4.95;;;;;;;;;;4992240;28;20061;-55
2021/11/07 13:07:21;;;;;;;8.45;3.50;;;;;;;;;;4992510;28;20046;-55
2021/11/07 13:09:55;;;;;;;7.38;3.30;;;;;;;;;;4976957;28;20078;-54
2021/11/07 13:12:28;;;;;;;14.35;4.90;;;;;;;;;;4993162;28;20078;-55
2021/11/07 13:26:17;;;;;;;8.88;4.63;;;;;;;;;;4933344;29;20500;-54
2021/11/07 13:28:53;;;;;;;4.82;3.03;;;;;;;;;;4932894;29;20086;-54
2021/11/07 13:31:22;;;;;;;7.78;4.55;;;;;;;;;;4933095;29;20058;-54
2021/11/07 13:33:49;;;;;;;7.80;3.88;;;;;;;;;;4918026;29;20055;-54
2021/11/07 13:36:18;;;;;;;6.72;4.30;;;;;;;;;;4933555;29;20048;-54
2021/11/07 13:38:45;;;;;;;8.32;3.55;;;;;;;;;;4933576;29;20067;-54
2021/11/07 13:41:24;;;;;;;9.13;4.93;;;;;;;;;;4932663;29;20067;-55
2021/11/07 13:43:59;;;;;;;9.68;4.22;;;;;;;;;;4932591;29;20419;-54
2021/11/07 13:46:26;;;;;;;6.60;3.55;;;;;;;;;;4932381;29;20099;-54
2021/11/07 13:49:02;;;;;;;8.02;4.05;;;;;;;;;;4933157;29;20047;-54
2021/11/07 13:51:29;;;;;;;10.07;4.80;;;;;;;;;;4932700;29;20083;-54
2021/11/07 13:54:04;;;;;;;11.05;4.55;;;;;;;;;;4933177;29;20052;-54
2021/11/07 13:56:30;;;;;;;;;;;;;;;;;;4932915;29;20496;-54
2021/11/07 13:58:57;;;;;;;9.27;4.70;;;;;;;;;;4990480;28;19925;-54
2021/11/07 14:01:23;;;;;;;7.90;4.57;;;;;;;;;;4992797;28;20054;-54
2021/11/07 14:03:54;;;;;;;8.05;4.22;;;;;;;;;;4992559;28;20073;-54
2021/11/07 14:06:28;;;;;;;8.77;4.47;;;;;;;;;;4992644;28;20046;-55
2021/11/07 14:09:02;;;;;;;8.57;5.18;;;;;;;;;;4992604;28;20058;-54
2021/11/07 14:11:29;;;;;;;10.00;5.18;;;;;;;;;;4992137;28;20446;-54
2021/11/07 14:14:00;;;;;;;9.43;5.47;;;;;;;;;;4992375;28;20085;-54
2021/11/07 14:16:30;;;;;;;9.57;5.07;;;;;;;;;;4992456;28;20043;-54
2021/11/07 14:18:57;;;;;;;8.82;4.43;;;;;;;;;;4992261;28;20136;-54
2021/11/07 14:21:26;;;;;;;12.05;4.97;;;;;;;;;;4992509;28;20046;-54
2021/11/07 14:24:06;;;;;;;7.65;4.00;;;;;;;;;;4992129;28;20503;-54
2021/11/07 14:26:40;;;;;;;8.95;5.25;;;;;;;;;;4991777;28;20513;-55
2021/11/07 14:29:59;;;;;;;9.15;4.60;;;;;;;;;;4992172;28;20085;-54
2021/11/07 14:32:10;;;;;;;10.27;5.18;;;;;;;;;;4981603;28;20570;-55
2021/11/07 14:34:56;;;;;;;13.90;7.85;;;;;;;;;;4992380;28;20494;-54
2021/11/07 14:40:16;;;;;;;10.02;5.93;;;;;;;;;;4991735;28;20074;-54
2021/11/07 14:43:00;;;;;;;9.23;5.07;;;;;;;;;;4992154;28;20054;-54
2021/11/07 14:48:28;;;;;;;11.23;4.93;;;;;;;;;;4992138;28;20097;-55
2021/11/07 14:51:15;;;;;;;12.15;4.13;;;;;;;;;;4992624;28;20050;-55
2021/11/07 14:54:26;;;;;;;12.52;5.07;;;;;;;;;;4992516;28;20073;-54
2021/11/07 15:02:08;;;;;;;9.38;5.22;;;;;;;;;;4992475;28;20046;-56
2021/11/07 15:04:45;;;;;;;11.68;5.72;;;;;;;;;;4992317;28;20502;-54
2021/11/07 15:07:25;;;;;;;10.85;5.70;;;;;;;;;;4992436;28;20137;-54
2021/11/07 15:10:15;;;;;;;11.10;5.85;;;;;;;;;;4992330;28;20077;-55
2021/11/07 15:12:53;;;;;;;12.05;5.63;;;;;;;;;;4992277;28;20051;-54
2021/11/07 15:15:42;;;;;;;8.63;4.80;;;;;;;;;;4992729;28;20078;-55
2021/11/07 15:21:01;;;;;;;8.52;4.32;;;;;;;;;;4992551;28;20085;-55
2021/11/07 15:23:36;;;;;;;12.68;5.72;;;;;;;;;;4992337;28;20050;-54
2021/11/07 15:26:20;;;;;;;11.88;5.43;;;;;;;;;;4991990;28;20077;-54
2021/11/07 15:28:53;;;;;;;9.40;4.75;;;;;;;;;;4992142;28;20069;-54
2021/11/07 15:31:20;;;;;;;8.30;4.60;;;;;;;;;;4992128;28;20645;-55
2021/11/07 15:33:46;;;;;;;12.18;4.72;;;;;;;;;;4992115;28;20133;-54
2021/11/07 15:36:12;;;;;;;13.02;6.43;;;;;;;;;;4992539;28;20045;-54
2021/11/07 15:38:39;;;;;;;10.23;5.28;;;;;;;;;;4991826;28;20525;-54
2021/11/07 15:41:10;;;;;;;10.13;5.07;;;;;;;;;;4991894;28;20046;-54
2021/11/07 15:43:37;;;;;;;9.00;4.57;;;;;;;;;;4990923;28;20034;-54
2021/11/07 15:46:13;;;;;;;11.63;6.50;;;;;;;;;;4992115;28;20120;-54
2021/11/07 15:48:44;;;;;;;12.75;6.45;;;;;;;;;;4994854;28;20069;-54
2021/11/07 16:01:53;;;;;;;8.50;5.70;;;;;;;;;;4994883;28;20082;-60
2021/11/07 16:04:39;;;;;;;8.07;4.03;;;;;;;;;;4995424;28;20490;-54
2021/11/07 16:09:44;;;;;;;8.27;4.53;;;;;;;;;;4994843;28;20546;-55
2021/11/07 16:12:31;;;;;;;8.70;4.38;;;;;;;;;;4995749;28;20042;-53
2021/11/07 16:15:13;;;;;;;14.70;4.80;;;;;;;;;;4995827;28;20057;-56
2021/11/07 16:17:43;;;;;;;11.98;5.35;;;;;;;;;;4994822;28;20501;-55
2021/11/07 16:20:16;;;;;;;12.70;6.20;;;;;;;;;;4994956;28;20060;-54
2021/11/07 16:22:47;;;;;;;12.73;5.97;;;;;;;;;;4994700;28;20054;-56
2021/11/07 16:25:14;;;;;;;12.25;5.93;;;;;;;;;;4994812;28;20096;-54
2021/11/07 16:27:43;;;;;;;11.05;5.18;;;;;;;;;;4993362;28;20042;-54
2021/11/07 16:30:14;;;;;;;11.63;6.60;;;;;;;;;;4994977;28;20054;-54
2021/11/07 16:32:47;;;;;;;11.48;5.40;;;;;;;;;;4990847;28;20051;-54
2021/11/07 16:35:22;;;;;;;14.30;5.65;;;;;;;;;;4992830;28;20088;-54
2021/11/07 16:38:03;;;;;;;17.08;6.70;;;;;;;;;;4991547;28;20061;-54
2021/11/07 16:40:37;;;;;;;10.90;5.70;;;;;;;;;;4991097;28;20046;-54
2021/11/07 16:43:06;;;;;;;10.52;5.82;;;;;;;;;;4992753;28;20509;-54
2021/11/07 16:45:32;;;;;;;11.07;5.18;;;;;;;;;;4992367;28;20161;-54
2021/11/07 16:48:01;;;;;;;11.98;5.55;;;;;;;;;;4991052;28;20046;-56
2021/11/07 16:50:37;;;;;;;7.80;4.60;;;;;;;;;;4991955;28;20050;-56
2021/11/07 16:53:06;;;;;;;14.18;6.22;;;;;;;;;;4991448;28;20449;-55
2021/11/07 16:55:39;;;;;;;8.27;4.22;;;;;;;;;;4992415;28;20050;-55
2021/11/07 16:58:07;;;;;;;14.23;4.70;;;;;;;;;;4992274;28;20082;-54
2021/11/07 17:00:39;;;;;;;13.63;6.10;;;;;;;;;;4990848;28;20128;-53
2021/11/07 17:03:12;;;;;;;12.80;4.78;;;;;;;;;;4992797;28;20057;-54
2021/11/07 17:05:41;;;;;;;7.70;3.88;;;;;;;;;;4991792;28;20161;-55
2021/11/07 17:10:37;;;;;;;14.18;6.30;;;;;;;;;;4991905;28;20391;-53
2021/11/07 17:13:05;;;;;;;14.05;6.22;;;;;;;;;;4994049;28;20073;-53
2021/11/07 17:18:10;;;;;;;14.88;6.05;;;;;;;;;;4991574;28;20493;-54
2021/11/07 17:25:52;;;;;;;8.88;5.28;;;;;;;;;;4991891;28;20046;-53
2021/11/07 17:28:24;;;;;;;7.05;4.30;;;;;;;;;;4991019;28;20054;-55
2021/11/07 17:33:30;;;;;;;14.50;6.57;;;;;;;;;;4992132;28;20057;-55
2021/11/07 17:41:25;;;;;;;10.48;5.57;;;;;;;;;;4973257;28;20082;-55
2021/11/07 17:49:56;;;;;;;9.60;4.40;;;;;;;;;;4991717;28;20072;-54
2021/11/07 17:55:04;;;;;;;11.23;4.68;;;;;;;;;;4991720;28;19926;-55
2021/11/07 17:57:35;;;;;;;15.40;7.65;;;;;;;;;;4991694;28;20144;-55
2021/11/07 18:00:03;;;;;;;14.32;7.45;;;;;;;;;;4996184;28;20046;-54
2021/11/07 18:02:32;;;;;;;16.48;8.00;;;;;;;;;;4992068;28;20121;-54
2021/11/07 18:05:01;;;;;;;14.10;7.97;;;;;;;;;;4991355;28;20046;-54
2021/11/07 18:07:31;;;;;;;15.55;8.35;;;;;;;;;;4983947;28;20038;-54
2021/11/07 18:10:02;;;;;;;18.15;8.88;;;;;;;;;;4988793;28;20046;-54